sensor_id;sensor_type;location;lat;lon;timestamp;P1;durP1;ratioP1;P2;durP2;ratioP2
1024;SDS011;501;48.214;11.350;2022-10-23T00:00:21;6.10;;;5.40;;
1024;SDS011;501;48.214;11.350;2022-10-23T00:02:50;6.03;;;5.43;;
1024;SDS011;501;48.214;11.350;2022-10-23T00:05:18;8.53;;;5.53;;
1024;SDS011;501;48.214;11.350;2022-10-23T00:07:48;8.87;;;6.20;;
1024;SDS011;501;48.214;11.350;2022-10-23T00:10:14;6.33;;;5.60;;
1024;SDS011;501;48.214;11.350;2022-10-23T00:12:40;7.63;;;5.90;;
1024;SDS011;501;48.214;11.350;2022-10-23T00:15:05;6.97;;;6.10;;
1024;SDS011;501;48.214;11.350;2022-10-23T00:17:31;9.13;;;6.50;;
1024;SDS011;501;48.214;11.350;2022-10-23T00:19:59;8.40;;;6.70;;
1024;SDS011;501;48.214;11.350;2022-10-23T00:22:25;9.17;;;7.97;;
1024;SDS011;501;48.214;11.350;2022-10-23T00:24:50;10.30;;;7.53;;
1024;SDS011;501;48.214;11.350;2022-10-23T00:27:16;11.33;;;6.73;;
1024;SDS011;501;48.214;11.350;2022-10-23T00:29:43;7.70;;;6.40;;
1024;SDS011;501;48.214;11.350;2022-10-23T00:32:09;6.80;;;5.80;;
1024;SDS011;501;48.214;11.350;2022-10-23T00:34:35;6.60;;;5.97;;
1024;SDS011;501;48.214;11.350;2022-10-23T00:37:00;7.90;;;5.97;;
1024;SDS011;501;48.214;11.350;2022-10-23T00:39:26;8.57;;;6.00;;
1024;SDS011;501;48.214;11.350;2022-10-23T00:41:51;9.10;;;6.00;;
1024;SDS011;501;48.214;11.350;2022-10-23T00:46:42;10.60;;;5.90;;
1024;SDS011;501;48.214;11.350;2022-10-23T00:49:09;7.43;;;5.43;;
1024;SDS011;501;48.214;11.350;2022-10-23T00:51:38;6.93;;;5.80;;
1024;SDS011;501;48.214;11.350;2022-10-23T00:54:12;5.27;;;4.57;;
1024;SDS011;501;48.214;11.350;2022-10-23T00:56:41;6.70;;;5.07;;
1024;SDS011;501;48.214;11.350;2022-10-23T00:59:08;8.50;;;5.17;;
1024;SDS011;501;48.214;11.350;2022-10-23T01:01:35;6.50;;;5.60;;
1024;SDS011;501;48.214;11.350;2022-10-23T01:04:02;6.03;;;4.77;;
1024;SDS011;501;48.214;11.350;2022-10-23T01:09:02;5.73;;;5.07;;
1024;SDS011;501;48.214;11.350;2022-10-23T01:12:00;5.50;;;5.00;;
1024;SDS011;501;48.214;11.350;2022-10-23T01:22:45;8.83;;;4.77;;
1024;SDS011;501;48.214;11.350;2022-10-23T01:28:24;5.57;;;4.90;;
1024;SDS011;501;48.214;11.350;2022-10-23T01:30:57;5.73;;;5.13;;
1024;SDS011;501;48.214;11.350;2022-10-23T01:33:33;13.80;;;5.70;;
1024;SDS011;501;48.214;11.350;2022-10-23T01:36:05;7.10;;;5.30;;
1024;SDS011;501;48.214;11.350;2022-10-23T01:44:15;5.20;;;4.70;;
1024;SDS011;501;48.214;11.350;2022-10-23T01:46:48;5.80;;;5.07;;
1024;SDS011;501;48.214;11.350;2022-10-23T01:49:16;5.03;;;4.53;;
1024;SDS011;501;48.214;11.350;2022-10-23T01:51:44;6.90;;;4.77;;
1024;SDS011;501;48.214;11.350;2022-10-23T01:54:15;8.13;;;6.63;;
1024;SDS011;501;48.214;11.350;2022-10-23T01:56:44;7.10;;;5.80;;
1024;SDS011;501;48.214;11.350;2022-10-23T01:59:15;7.13;;;5.10;;
1024;SDS011;501;48.214;11.350;2022-10-23T02:01:44;7.23;;;5.20;;
1024;SDS011;501;48.214;11.350;2022-10-23T02:04:14;9.83;;;4.50;;
1024;SDS011;501;48.214;11.350;2022-10-23T02:06:46;5.77;;;5.23;;
1024;SDS011;501;48.214;11.350;2022-10-23T02:09:12;4.77;;;4.37;;
1024;SDS011;501;48.214;11.350;2022-10-23T02:11:39;8.03;;;5.13;;
1024;SDS011;501;48.214;11.350;2022-10-23T02:14:16;6.20;;;4.97;;
1024;SDS011;501;48.214;11.350;2022-10-23T02:17:07;6.30;;;4.53;;
1024;SDS011;501;48.214;11.350;2022-10-23T02:19:55;5.23;;;4.40;;
1024;SDS011;501;48.214;11.350;2022-10-23T02:22:27;8.23;;;4.83;;
1024;SDS011;501;48.214;11.350;2022-10-23T02:25:00;4.93;;;4.43;;
1024;SDS011;501;48.214;11.350;2022-10-23T02:27:36;4.30;;;3.80;;
1024;SDS011;501;48.214;11.350;2022-10-23T02:30:09;8.97;;;4.73;;
1024;SDS011;501;48.214;11.350;2022-10-23T02:32:37;4.20;;;3.80;;
1024;SDS011;501;48.214;11.350;2022-10-23T02:35:06;5.13;;;4.63;;
1024;SDS011;501;48.214;11.350;2022-10-23T02:37:33;4.77;;;4.27;;
1024;SDS011;501;48.214;11.350;2022-10-23T02:39:58;4.90;;;4.20;;
1024;SDS011;501;48.214;11.350;2022-10-23T02:42:48;4.77;;;4.37;;
1024;SDS011;501;48.214;11.350;2022-10-23T02:45:18;4.47;;;4.07;;
1024;SDS011;501;48.214;11.350;2022-10-23T02:51:06;4.87;;;4.23;;
1024;SDS011;501;48.214;11.350;2022-10-23T02:53:42;4.73;;;3.80;;
1024;SDS011;501;48.214;11.350;2022-10-23T02:56:27;7.10;;;5.10;;
1024;SDS011;501;48.214;11.350;2022-10-23T03:01:41;3.37;;;3.07;;
1024;SDS011;501;48.214;11.350;2022-10-23T03:04:08;4.00;;;3.60;;
1024;SDS011;501;48.214;11.350;2022-10-23T03:06:35;3.93;;;3.40;;
1024;SDS011;501;48.214;11.350;2022-10-23T03:09:05;3.93;;;3.53;;
1024;SDS011;501;48.214;11.350;2022-10-23T03:11:33;4.50;;;2.80;;
1024;SDS011;501;48.214;11.350;2022-10-23T03:13:58;3.60;;;3.30;;
1024;SDS011;501;48.214;11.350;2022-10-23T03:16:24;4.20;;;3.40;;
1024;SDS011;501;48.214;11.350;2022-10-23T03:18:49;3.93;;;3.63;;
1024;SDS011;501;48.214;11.350;2022-10-23T03:21:15;3.40;;;3.10;;
1024;SDS011;501;48.214;11.350;2022-10-23T03:23:41;7.27;;;3.53;;
1024;SDS011;501;48.214;11.350;2022-10-23T03:26:06;4.00;;;3.70;;
1024;SDS011;501;48.214;11.350;2022-10-23T03:28:32;4.30;;;3.90;;
1024;SDS011;501;48.214;11.350;2022-10-23T03:30:59;3.83;;;3.47;;
1024;SDS011;501;48.214;11.350;2022-10-23T03:33:26;4.67;;;4.13;;
1024;SDS011;501;48.214;11.350;2022-10-23T03:35:52;4.80;;;3.17;;
1024;SDS011;501;48.214;11.350;2022-10-23T03:38:17;6.93;;;3.60;;
1024;SDS011;501;48.214;11.350;2022-10-23T03:40:43;3.50;;;3.20;;
1024;SDS011;501;48.214;11.350;2022-10-23T03:43:09;4.70;;;3.60;;
1024;SDS011;501;48.214;11.350;2022-10-23T03:45:34;4.53;;;3.33;;
1024;SDS011;501;48.214;11.350;2022-10-23T03:48:02;3.53;;;3.23;;
1024;SDS011;501;48.214;11.350;2022-10-23T03:50:28;3.20;;;2.90;;
1024;SDS011;501;48.214;11.350;2022-10-23T03:52:54;3.57;;;3.27;;
1024;SDS011;501;48.214;11.350;2022-10-23T03:55:20;4.37;;;3.13;;
1024;SDS011;501;48.214;11.350;2022-10-23T03:57:45;3.33;;;3.13;;
1024;SDS011;501;48.214;11.350;2022-10-23T04:00:11;3.40;;;3.10;;
1024;SDS011;501;48.214;11.350;2022-10-23T04:02:37;3.90;;;3.60;;
1024;SDS011;501;48.214;11.350;2022-10-23T04:05:02;4.73;;;3.03;;
1024;SDS011;501;48.214;11.350;2022-10-23T04:07:28;3.63;;;3.10;;
1024;SDS011;501;48.214;11.350;2022-10-23T04:09:54;3.27;;;2.97;;
1024;SDS011;501;48.214;11.350;2022-10-23T04:12:19;7.70;;;4.00;;
1024;SDS011;501;48.214;11.350;2022-10-23T04:14:45;4.47;;;3.90;;
1024;SDS011;501;48.214;11.350;2022-10-23T04:17:10;4.20;;;3.13;;
1024;SDS011;501;48.214;11.350;2022-10-23T04:19:36;4.03;;;3.23;;
1024;SDS011;501;48.214;11.350;2022-10-23T04:22:01;20.03;;;4.10;;
1024;SDS011;501;48.214;11.350;2022-10-23T04:24:27;4.20;;;3.30;;
1024;SDS011;501;48.214;11.350;2022-10-23T04:26:53;4.93;;;3.70;;
1024;SDS011;501;48.214;11.350;2022-10-23T04:29:18;4.80;;;3.67;;
1024;SDS011;501;48.214;11.350;2022-10-23T04:31:47;3.73;;;3.30;;
1024;SDS011;501;48.214;11.350;2022-10-23T04:34:12;3.90;;;3.43;;
1024;SDS011;501;48.214;11.350;2022-10-23T04:36:38;4.30;;;3.57;;
1024;SDS011;501;48.214;11.350;2022-10-23T04:39:04;3.70;;;3.40;;
1024;SDS011;501;48.214;11.350;2022-10-23T04:41:29;3.43;;;3.13;;
1024;SDS011;501;48.214;11.350;2022-10-23T04:43:55;3.70;;;3.40;;
1024;SDS011;501;48.214;11.350;2022-10-23T04:46:20;2.80;;;2.70;;
1024;SDS011;501;48.214;11.350;2022-10-23T04:48:46;3.30;;;3.00;;
1024;SDS011;501;48.214;11.350;2022-10-23T04:51:11;3.83;;;3.53;;
1024;SDS011;501;48.214;11.350;2022-10-23T04:53:37;3.13;;;2.93;;
1024;SDS011;501;48.214;11.350;2022-10-23T04:56:03;3.63;;;3.33;;
1024;SDS011;501;48.214;11.350;2022-10-23T04:58:29;5.97;;;3.10;;
1024;SDS011;501;48.214;11.350;2022-10-23T05:00:56;2.57;;;2.30;;
1024;SDS011;501;48.214;11.350;2022-10-23T05:03:22;3.27;;;2.70;;
1024;SDS011;501;48.214;11.350;2022-10-23T05:05:48;3.30;;;3.00;;
1024;SDS011;501;48.214;11.350;2022-10-23T05:08:15;2.50;;;2.30;;
1024;SDS011;501;48.214;11.350;2022-10-23T05:10:41;3.57;;;3.07;;
1024;SDS011;501;48.214;11.350;2022-10-23T05:13:07;5.40;;;2.97;;
1024;SDS011;501;48.214;11.350;2022-10-23T05:15:32;3.20;;;2.77;;
1024;SDS011;501;48.214;11.350;2022-10-23T05:18:03;4.00;;;3.43;;
1024;SDS011;501;48.214;11.350;2022-10-23T05:20:38;3.23;;;2.80;;
1024;SDS011;501;48.214;11.350;2022-10-23T05:23:05;3.83;;;3.43;;
1024;SDS011;501;48.214;11.350;2022-10-23T05:25:33;3.33;;;3.00;;
1024;SDS011;501;48.214;11.350;2022-10-23T05:28:00;5.00;;;3.40;;
1024;SDS011;501;48.214;11.350;2022-10-23T05:30:25;2.80;;;2.60;;
1024;SDS011;501;48.214;11.350;2022-10-23T05:32:51;3.17;;;2.97;;
1024;SDS011;501;48.214;11.350;2022-10-23T05:35:18;4.53;;;3.40;;
1024;SDS011;501;48.214;11.350;2022-10-23T05:37:47;3.10;;;2.90;;
1024;SDS011;501;48.214;11.350;2022-10-23T05:40:16;2.80;;;2.60;;
1024;SDS011;501;48.214;11.350;2022-10-23T05:42:42;2.90;;;2.70;;
1024;SDS011;501;48.214;11.350;2022-10-23T05:45:07;3.00;;;2.80;;
1024;SDS011;501;48.214;11.350;2022-10-23T05:47:33;5.90;;;3.60;;
1024;SDS011;501;48.214;11.350;2022-10-23T05:49:59;2.60;;;2.40;;
1024;SDS011;501;48.214;11.350;2022-10-23T05:52:24;3.17;;;2.87;;
1024;SDS011;501;48.214;11.350;2022-10-23T05:54:50;2.90;;;2.70;;
1024;SDS011;501;48.214;11.350;2022-10-23T05:57:16;3.00;;;2.60;;
1024;SDS011;501;48.214;11.350;2022-10-23T05:59:42;2.90;;;2.40;;
1024;SDS011;501;48.214;11.350;2022-10-23T06:02:07;3.33;;;3.03;;
1024;SDS011;501;48.214;11.350;2022-10-23T06:04:33;3.67;;;2.90;;
1024;SDS011;501;48.214;11.350;2022-10-23T06:06:59;3.93;;;3.13;;
1024;SDS011;501;48.214;11.350;2022-10-23T06:09:25;2.80;;;2.60;;
1024;SDS011;501;48.214;11.350;2022-10-23T06:11:51;3.87;;;3.27;;
1024;SDS011;501;48.214;11.350;2022-10-23T06:14:17;5.70;;;3.00;;
1024;SDS011;501;48.214;11.350;2022-10-23T06:16:42;5.10;;;3.90;;
1024;SDS011;501;48.214;11.350;2022-10-23T06:19:09;5.20;;;3.50;;
1024;SDS011;501;48.214;11.350;2022-10-23T06:21:36;6.13;;;4.17;;
1024;SDS011;501;48.214;11.350;2022-10-23T06:24:02;8.03;;;6.73;;
1024;SDS011;501;48.214;11.350;2022-10-23T06:26:29;9.90;;;6.30;;
1024;SDS011;501;48.214;11.350;2022-10-23T06:28:54;7.03;;;5.13;;
1024;SDS011;501;48.214;11.350;2022-10-23T06:31:20;5.90;;;4.20;;
1024;SDS011;501;48.214;11.350;2022-10-23T06:33:50;4.80;;;3.80;;
1024;SDS011;501;48.214;11.350;2022-10-23T06:36:16;6.77;;;3.70;;
1024;SDS011;501;48.214;11.350;2022-10-23T06:38:42;3.17;;;2.90;;
1024;SDS011;501;48.214;11.350;2022-10-23T06:41:15;6.10;;;3.07;;
1024;SDS011;501;48.214;11.350;2022-10-23T06:43:43;2.87;;;2.67;;
1024;SDS011;501;48.214;11.350;2022-10-23T06:46:11;3.33;;;2.70;;
1024;SDS011;501;48.214;11.350;2022-10-23T06:48:36;4.90;;;3.40;;
1024;SDS011;501;48.214;11.350;2022-10-23T06:51:06;4.57;;;3.10;;
1024;SDS011;501;48.214;11.350;2022-10-23T06:53:33;3.30;;;3.10;;
1024;SDS011;501;48.214;11.350;2022-10-23T06:56:00;4.03;;;2.87;;
1024;SDS011;501;48.214;11.350;2022-10-23T06:58:26;3.60;;;2.57;;
1024;SDS011;501;48.214;11.350;2022-10-23T07:00:52;2.80;;;2.30;;
1024;SDS011;501;48.214;11.350;2022-10-23T07:03:18;3.17;;;2.90;;
1024;SDS011;501;48.214;11.350;2022-10-23T07:05:44;2.70;;;2.50;;
1024;SDS011;501;48.214;11.350;2022-10-23T07:08:11;11.10;;;5.73;;
1024;SDS011;501;48.214;11.350;2022-10-23T07:10:37;8.87;;;5.97;;
1024;SDS011;501;48.214;11.350;2022-10-23T07:13:06;6.27;;;4.17;;
1024;SDS011;501;48.214;11.350;2022-10-23T07:15:33;3.27;;;2.97;;
1024;SDS011;501;48.214;11.350;2022-10-23T07:17:58;4.23;;;3.83;;
1024;SDS011;501;48.214;11.350;2022-10-23T07:20:24;5.40;;;4.00;;
1024;SDS011;501;48.214;11.350;2022-10-23T07:22:53;4.33;;;3.80;;
1024;SDS011;501;48.214;11.350;2022-10-23T07:25:20;3.80;;;3.50;;
1024;SDS011;501;48.214;11.350;2022-10-23T07:27:47;3.90;;;3.57;;
1024;SDS011;501;48.214;11.350;2022-10-23T07:30:13;4.33;;;3.97;;
1024;SDS011;501;48.214;11.350;2022-10-23T07:32:39;4.20;;;3.80;;
1024;SDS011;501;48.214;11.350;2022-10-23T07:35:05;4.20;;;3.60;;
1024;SDS011;501;48.214;11.350;2022-10-23T07:37:32;3.50;;;3.30;;
1024;SDS011;501;48.214;11.350;2022-10-23T07:39:57;3.37;;;3.07;;
1024;SDS011;501;48.214;11.350;2022-10-23T07:42:23;3.37;;;3.07;;
1024;SDS011;501;48.214;11.350;2022-10-23T07:44:49;3.43;;;3.13;;
1024;SDS011;501;48.214;11.350;2022-10-23T07:47:14;3.67;;;3.37;;
1024;SDS011;501;48.214;11.350;2022-10-23T07:49:40;4.00;;;3.70;;
1024;SDS011;501;48.214;11.350;2022-10-23T07:52:06;3.17;;;2.97;;
1024;SDS011;501;48.214;11.350;2022-10-23T07:54:32;3.23;;;2.93;;
1024;SDS011;501;48.214;11.350;2022-10-23T07:56:58;4.00;;;3.60;;
1024;SDS011;501;48.214;11.350;2022-10-23T07:59:24;3.60;;;3.30;;
1024;SDS011;501;48.214;11.350;2022-10-23T08:01:50;3.30;;;3.10;;
1024;SDS011;501;48.214;11.350;2022-10-23T08:04:17;4.40;;;3.63;;
1024;SDS011;501;48.214;11.350;2022-10-23T08:06:43;3.20;;;2.90;;
1024;SDS011;501;48.214;11.350;2022-10-23T08:09:09;4.20;;;3.80;;
1024;SDS011;501;48.214;11.350;2022-10-23T08:11:34;16.03;;;4.20;;
1024;SDS011;501;48.214;11.350;2022-10-23T08:14:01;3.67;;;3.37;;
1024;SDS011;501;48.214;11.350;2022-10-23T08:16:31;4.00;;;3.17;;
1024;SDS011;501;48.214;11.350;2022-10-23T08:18:58;3.40;;;3.10;;
1024;SDS011;501;48.214;11.350;2022-10-23T08:21:25;3.20;;;3.00;;
1024;SDS011;501;48.214;11.350;2022-10-23T08:23:52;4.30;;;3.43;;
1024;SDS011;501;48.214;11.350;2022-10-23T08:26:21;4.20;;;3.60;;
1024;SDS011;501;48.214;11.350;2022-10-23T08:28:48;6.70;;;3.20;;
1024;SDS011;501;48.214;11.350;2022-10-23T08:31:15;3.30;;;3.10;;
1024;SDS011;501;48.214;11.350;2022-10-23T08:33:42;6.30;;;3.30;;
1024;SDS011;501;48.214;11.350;2022-10-23T08:36:18;3.20;;;3.00;;
1024;SDS011;501;48.214;11.350;2022-10-23T08:38:48;3.73;;;3.43;;
1024;SDS011;501;48.214;11.350;2022-10-23T08:41:37;3.10;;;2.90;;
1024;SDS011;501;48.214;11.350;2022-10-23T08:47:01;3.10;;;2.27;;
1024;SDS011;501;48.214;11.350;2022-10-23T08:52:26;3.03;;;2.40;;
1024;SDS011;501;48.214;11.350;2022-10-23T08:57:57;2.30;;;2.10;;
1024;SDS011;501;48.214;11.350;2022-10-23T09:00:30;2.57;;;2.33;;
1024;SDS011;501;48.214;11.350;2022-10-23T09:03:00;3.33;;;2.53;;
1024;SDS011;501;48.214;11.350;2022-10-23T09:05:34;2.90;;;2.20;;
1024;SDS011;501;48.214;11.350;2022-10-23T09:10:57;1.70;;;1.60;;
1024;SDS011;501;48.214;11.350;2022-10-23T09:16:08;2.37;;;1.90;;
1024;SDS011;501;48.214;11.350;2022-10-23T09:18:44;2.73;;;2.07;;
1024;SDS011;501;48.214;11.350;2022-10-23T09:21:11;2.77;;;2.57;;
1024;SDS011;501;48.214;11.350;2022-10-23T09:23:36;2.50;;;1.77;;
1024;SDS011;501;48.214;11.350;2022-10-23T09:26:05;2.20;;;1.97;;
1024;SDS011;501;48.214;11.350;2022-10-23T09:28:50;2.33;;;2.13;;
1024;SDS011;501;48.214;11.350;2022-10-23T09:31:19;2.20;;;2.00;;
1024;SDS011;501;48.214;11.350;2022-10-23T09:33:55;5.33;;;2.17;;
1024;SDS011;501;48.214;11.350;2022-10-23T09:36:22;2.00;;;1.73;;
1024;SDS011;501;48.214;11.350;2022-10-23T09:38:51;1.97;;;1.77;;
1024;SDS011;501;48.214;11.350;2022-10-23T09:41:39;2.63;;;1.67;;
1024;SDS011;501;48.214;11.350;2022-10-23T09:46:39;3.00;;;1.57;;
1024;SDS011;501;48.214;11.350;2022-10-23T09:49:16;2.00;;;1.90;;
1024;SDS011;501;48.214;11.350;2022-10-23T09:54:44;1.20;;;1.10;;
1024;SDS011;501;48.214;11.350;2022-10-23T09:59:50;2.17;;;1.30;;
1024;SDS011;501;48.214;11.350;2022-10-23T10:02:28;0.77;;;0.77;;
1024;SDS011;501;48.214;11.350;2022-10-23T10:05:10;1.23;;;1.10;;
1024;SDS011;501;48.214;11.350;2022-10-23T10:07:53;1.23;;;0.80;;
1024;SDS011;501;48.214;11.350;2022-10-23T10:10:22;1.03;;;0.97;;
1024;SDS011;501;48.214;11.350;2022-10-23T10:12:49;1.13;;;1.03;;
1024;SDS011;501;48.214;11.350;2022-10-23T10:23:25;1.70;;;0.83;;
1024;SDS011;501;48.214;11.350;2022-10-23T10:26:37;0.80;;;0.80;;
1024;SDS011;501;48.214;11.350;2022-10-23T10:31:19;1.97;;;1.10;;
1024;SDS011;501;48.214;11.350;2022-10-23T10:34:00;0.73;;;0.73;;
1024;SDS011;501;48.214;11.350;2022-10-23T10:36:52;1.90;;;0.70;;
1024;SDS011;501;48.214;11.350;2022-10-23T10:42:19;0.90;;;0.80;;
1024;SDS011;501;48.214;11.350;2022-10-23T10:47:44;0.90;;;0.57;;
1024;SDS011;501;48.214;11.350;2022-10-23T10:50:22;1.70;;;0.83;;
1024;SDS011;501;48.214;11.350;2022-10-23T10:55:42;0.80;;;0.70;;
1024;SDS011;501;48.214;11.350;2022-10-23T10:58:27;1.00;;;0.70;;
1024;SDS011;501;48.214;11.350;2022-10-23T11:01:20;1.30;;;0.80;;
1024;SDS011;501;48.214;11.350;2022-10-23T11:03:56;1.40;;;0.70;;
1024;SDS011;501;48.214;11.350;2022-10-23T11:06:28;1.13;;;0.93;;
1024;SDS011;501;48.214;11.350;2022-10-23T11:08:59;1.20;;;1.00;;
1024;SDS011;501;48.214;11.350;2022-10-23T11:11:35;0.83;;;0.70;;
1024;SDS011;501;48.214;11.350;2022-10-23T11:14:04;0.70;;;0.67;;
1024;SDS011;501;48.214;11.350;2022-10-23T11:16:38;2.10;;;0.93;;
1024;SDS011;501;48.214;11.350;2022-10-23T11:19:26;1.03;;;0.90;;
1024;SDS011;501;48.214;11.350;2022-10-23T11:31:51;0.97;;;0.80;;
1024;SDS011;501;48.214;11.350;2022-10-23T11:37:25;2.03;;;1.00;;
1024;SDS011;501;48.214;11.350;2022-10-23T11:39:57;1.03;;;0.93;;
1024;SDS011;501;48.214;11.350;2022-10-23T11:42:46;1.20;;;0.97;;
1024;SDS011;501;48.214;11.350;2022-10-23T11:45:32;1.00;;;0.97;;
1024;SDS011;501;48.214;11.350;2022-10-23T11:48:01;0.80;;;0.80;;
1024;SDS011;501;48.214;11.350;2022-10-23T11:53:23;1.00;;;0.90;;
1024;SDS011;501;48.214;11.350;2022-10-23T11:55:55;1.53;;;0.90;;
1024;SDS011;501;48.214;11.350;2022-10-23T11:58:48;2.47;;;0.90;;
1024;SDS011;501;48.214;11.350;2022-10-23T12:04:01;1.07;;;0.90;;
1024;SDS011;501;48.214;11.350;2022-10-23T12:06:52;8.00;;;1.50;;
1024;SDS011;501;48.214;11.350;2022-10-23T12:12:03;1.73;;;1.10;;
1024;SDS011;501;48.214;11.350;2022-10-23T12:14:46;1.50;;;0.77;;
1024;SDS011;501;48.214;11.350;2022-10-23T12:17:33;1.00;;;0.90;;
1024;SDS011;501;48.214;11.350;2022-10-23T12:22:49;1.53;;;0.70;;
1024;SDS011;501;48.214;11.350;2022-10-23T12:28:36;2.00;;;1.27;;
1024;SDS011;501;48.214;11.350;2022-10-23T12:39:53;1.07;;;0.93;;
1024;SDS011;501;48.214;11.350;2022-10-23T12:42:23;2.20;;;1.07;;
1024;SDS011;501;48.214;11.350;2022-10-23T12:45:00;1.43;;;1.10;;
1024;SDS011;501;48.214;11.350;2022-10-23T12:47:44;1.93;;;0.93;;
1024;SDS011;501;48.214;11.350;2022-10-23T12:52:50;1.07;;;0.70;;
1024;SDS011;501;48.214;11.350;2022-10-23T12:55:17;2.53;;;1.23;;
1024;SDS011;501;48.214;11.350;2022-10-23T12:57:43;1.00;;;0.73;;
1024;SDS011;501;48.214;11.350;2022-10-23T13:00:13;3.60;;;1.33;;
1024;SDS011;501;48.214;11.350;2022-10-23T13:02:44;2.40;;;1.13;;
1024;SDS011;501;48.214;11.350;2022-10-23T13:05:12;2.03;;;1.77;;
1024;SDS011;501;48.214;11.350;2022-10-23T13:07:42;1.50;;;0.90;;
1024;SDS011;501;48.214;11.350;2022-10-23T13:10:12;1.23;;;1.17;;
1024;SDS011;501;48.214;11.350;2022-10-23T13:12:40;1.27;;;1.10;;
1024;SDS011;501;48.214;11.350;2022-10-23T13:17:44;1.37;;;1.10;;
1024;SDS011;501;48.214;11.350;2022-10-23T13:20:24;1.00;;;0.87;;
1024;SDS011;501;48.214;11.350;2022-10-23T13:22:59;1.60;;;1.50;;
1024;SDS011;501;48.214;11.350;2022-10-23T13:26:03;3.90;;;1.80;;
1024;SDS011;501;48.214;11.350;2022-10-23T13:28:48;2.30;;;1.10;;
1024;SDS011;501;48.214;11.350;2022-10-23T13:33:46;1.00;;;1.00;;
1024;SDS011;501;48.214;11.350;2022-10-23T13:38:43;2.43;;;1.30;;
1024;SDS011;501;48.214;11.350;2022-10-23T13:41:12;1.40;;;0.90;;
1024;SDS011;501;48.214;11.350;2022-10-23T13:43:40;1.10;;;0.97;;
1024;SDS011;501;48.214;11.350;2022-10-23T13:46:12;1.70;;;0.90;;
1024;SDS011;501;48.214;11.350;2022-10-23T13:48:39;1.30;;;0.70;;
1024;SDS011;501;48.214;11.350;2022-10-23T13:51:14;1.73;;;1.03;;
1024;SDS011;501;48.214;11.350;2022-10-23T13:53:51;1.43;;;1.07;;
1024;SDS011;501;48.214;11.350;2022-10-23T13:56:18;1.63;;;0.93;;
1024;SDS011;501;48.214;11.350;2022-10-23T13:58:45;1.93;;;1.00;;
1024;SDS011;501;48.214;11.350;2022-10-23T14:01:21;0.93;;;0.87;;
1024;SDS011;501;48.214;11.350;2022-10-23T14:03:50;1.97;;;1.00;;
1024;SDS011;501;48.214;11.350;2022-10-23T14:06:16;2.93;;;1.30;;
1024;SDS011;501;48.214;11.350;2022-10-23T14:08:42;2.20;;;1.00;;
1024;SDS011;501;48.214;11.350;2022-10-23T14:11:08;3.37;;;1.13;;
1024;SDS011;501;48.214;11.350;2022-10-23T14:13:35;1.93;;;1.43;;
1024;SDS011;501;48.214;11.350;2022-10-23T14:16:01;2.30;;;1.20;;
1024;SDS011;501;48.214;11.350;2022-10-23T14:18:26;1.10;;;1.00;;
1024;SDS011;501;48.214;11.350;2022-10-23T14:20:52;2.47;;;1.47;;
1024;SDS011;501;48.214;11.350;2022-10-23T14:23:18;2.20;;;1.03;;
1024;SDS011;501;48.214;11.350;2022-10-23T14:25:43;3.40;;;1.50;;
1024;SDS011;501;48.214;11.350;2022-10-23T14:28:09;4.30;;;1.47;;
1024;SDS011;501;48.214;11.350;2022-10-23T14:30:35;2.00;;;1.73;;
1024;SDS011;501;48.214;11.350;2022-10-23T14:33:01;2.20;;;1.43;;
1024;SDS011;501;48.214;11.350;2022-10-23T14:35:27;1.10;;;1.00;;
1024;SDS011;501;48.214;11.350;2022-10-23T14:37:53;3.40;;;1.77;;
1024;SDS011;501;48.214;11.350;2022-10-23T14:40:19;3.23;;;1.10;;
1024;SDS011;501;48.214;11.350;2022-10-23T14:42:44;1.30;;;1.20;;
1024;SDS011;501;48.214;11.350;2022-10-23T14:45:10;4.97;;;1.40;;
1024;SDS011;501;48.214;11.350;2022-10-23T14:47:36;1.37;;;1.23;;
1024;SDS011;501;48.214;11.350;2022-10-23T14:50:01;2.00;;;1.60;;
1024;SDS011;501;48.214;11.350;2022-10-23T14:52:27;2.03;;;1.13;;
1024;SDS011;501;48.214;11.350;2022-10-23T14:54:53;2.33;;;1.10;;
1024;SDS011;501;48.214;11.350;2022-10-23T14:57:19;1.20;;;1.10;;
1024;SDS011;501;48.214;11.350;2022-10-23T14:59:46;2.03;;;1.30;;
1024;SDS011;501;48.214;11.350;2022-10-23T15:02:13;0.80;;;0.80;;
1024;SDS011;501;48.214;11.350;2022-10-23T15:04:39;1.30;;;1.20;;
1024;SDS011;501;48.214;11.350;2022-10-23T15:07:05;2.50;;;1.37;;
1024;SDS011;501;48.214;11.350;2022-10-23T15:09:31;4.27;;;1.40;;
1024;SDS011;501;48.214;11.350;2022-10-23T15:11:59;3.70;;;1.00;;
1024;SDS011;501;48.214;11.350;2022-10-23T15:14:25;5.63;;;1.60;;
1024;SDS011;501;48.214;11.350;2022-10-23T15:16:50;2.10;;;1.57;;
1024;SDS011;501;48.214;11.350;2022-10-23T15:19:16;1.57;;;1.47;;
1024;SDS011;501;48.214;11.350;2022-10-23T15:21:45;1.57;;;1.47;;
1024;SDS011;501;48.214;11.350;2022-10-23T15:24:12;2.57;;;1.53;;
1024;SDS011;501;48.214;11.350;2022-10-23T15:26:37;2.10;;;1.47;;
1024;SDS011;501;48.214;11.350;2022-10-23T15:29:05;1.70;;;1.40;;
1024;SDS011;501;48.214;11.350;2022-10-23T15:34:07;2.53;;;1.80;;
1024;SDS011;501;48.214;11.350;2022-10-23T15:36:35;3.93;;;2.00;;
1024;SDS011;501;48.214;11.350;2022-10-23T15:39:01;1.80;;;1.40;;
1024;SDS011;501;48.214;11.350;2022-10-23T15:41:28;2.60;;;1.97;;
1024;SDS011;501;48.214;11.350;2022-10-23T15:43:54;3.23;;;1.73;;
1024;SDS011;501;48.214;11.350;2022-10-23T15:46:21;1.70;;;1.60;;
1024;SDS011;501;48.214;11.350;2022-10-23T15:48:47;2.03;;;1.60;;
1024;SDS011;501;48.214;11.350;2022-10-23T15:51:12;3.67;;;1.87;;
1024;SDS011;501;48.214;11.350;2022-10-23T15:53:38;3.47;;;2.80;;
1024;SDS011;501;48.214;11.350;2022-10-23T15:56:04;4.10;;;2.80;;
1024;SDS011;501;48.214;11.350;2022-10-23T15:58:30;3.30;;;2.93;;
1024;SDS011;501;48.214;11.350;2022-10-23T16:00:55;4.50;;;2.77;;
1024;SDS011;501;48.214;11.350;2022-10-23T16:03:21;3.00;;;2.40;;
1024;SDS011;501;48.214;11.350;2022-10-23T16:05:47;2.07;;;1.83;;
1024;SDS011;501;48.214;11.350;2022-10-23T16:08:12;2.80;;;2.20;;
1024;SDS011;501;48.214;11.350;2022-10-23T16:10:39;2.43;;;2.23;;
1024;SDS011;501;48.214;11.350;2022-10-23T16:13:05;2.13;;;1.83;;
1024;SDS011;501;48.214;11.350;2022-10-23T16:15:34;2.17;;;1.97;;
1024;SDS011;501;48.214;11.350;2022-10-23T16:18:00;1.67;;;1.57;;
1024;SDS011;501;48.214;11.350;2022-10-23T16:20:26;4.00;;;1.97;;
1024;SDS011;501;48.214;11.350;2022-10-23T16:22:51;2.07;;;1.87;;
1024;SDS011;501;48.214;11.350;2022-10-23T16:25:17;2.13;;;1.70;;
1024;SDS011;501;48.214;11.350;2022-10-23T16:27:42;2.20;;;1.83;;
1024;SDS011;501;48.214;11.350;2022-10-23T16:30:08;3.00;;;1.80;;
1024;SDS011;501;48.214;11.350;2022-10-23T16:32:37;5.47;;;2.30;;
1024;SDS011;501;48.214;11.350;2022-10-23T16:35:03;2.67;;;2.13;;
1024;SDS011;501;48.214;11.350;2022-10-23T16:37:29;3.03;;;2.10;;
1024;SDS011;501;48.214;11.350;2022-10-23T16:39:54;3.03;;;2.20;;
1024;SDS011;501;48.214;11.350;2022-10-23T16:42:20;3.13;;;2.17;;
1024;SDS011;501;48.214;11.350;2022-10-23T16:44:46;2.50;;;2.03;;
1024;SDS011;501;48.214;11.350;2022-10-23T16:47:11;4.27;;;2.70;;
1024;SDS011;501;48.214;11.350;2022-10-23T16:49:37;5.90;;;3.20;;
1024;SDS011;501;48.214;11.350;2022-10-23T16:52:02;6.13;;;4.47;;
1024;SDS011;501;48.214;11.350;2022-10-23T16:54:28;4.73;;;2.93;;
1024;SDS011;501;48.214;11.350;2022-10-23T16:56:54;7.07;;;3.70;;
1024;SDS011;501;48.214;11.350;2022-10-23T16:59:19;4.97;;;4.07;;
1024;SDS011;501;48.214;11.350;2022-10-23T17:01:45;7.90;;;4.60;;
1024;SDS011;501;48.214;11.350;2022-10-23T17:04:10;5.30;;;3.27;;
1024;SDS011;501;48.214;11.350;2022-10-23T17:06:36;3.13;;;2.90;;
1024;SDS011;501;48.214;11.350;2022-10-23T17:09:02;3.10;;;2.90;;
1024;SDS011;501;48.214;11.350;2022-10-23T17:11:32;4.00;;;3.20;;
1024;SDS011;501;48.214;11.350;2022-10-23T17:14:02;4.20;;;3.20;;
1024;SDS011;501;48.214;11.350;2022-10-23T17:16:34;3.73;;;3.43;;
1024;SDS011;501;48.214;11.350;2022-10-23T17:19:05;3.13;;;2.83;;
1024;SDS011;501;48.214;11.350;2022-10-23T17:21:33;3.13;;;2.13;;
1024;SDS011;501;48.214;11.350;2022-10-23T17:24:00;2.13;;;1.93;;